Briefing drone pour Montmelian

Rechercher une autre localisation

Conditions de vol :


Nous sommes le : Dimanche 25 septembre 2022
Il est 23:32 UTC (01:32 LT)

Lever de soleil : 04:59 UTC (06:59 LT)
Coucher de soleil : 17:55 UTC (19:55 LT)

Météo

L'essentiel des conditions de vol

VIGILANCE MÉTÉO FRANCE - Savoie (73)
Vigilance Jaune : Orages
CARTE TEMSI
CARTES DES FRONTS
METAR de LFLB
LFLB 242300Z AUTO 21004KT 9999 FEW013/// BKN080/// OVC098/// ///CB 14/12 Q1014

Date d'émission: 24/09/2022
Heure d'émission: 23:00 UTC
Vent: 210° pour 4 KT (7 km/h)
Visibilité horizontale: > 10 km
Plafond :
- Peu de nuages à 1300ft (396m)
- Nuages morcelés à 8000ft (2438m)
- Couvert à 9800ft (2987m)
Température: 14 °C
Point de rosée: 12 °C
Humidité: 88%
Pression (QNH): 1014 hPa
TAF de LFLB
LFLB 241903Z 2419/2515 CNL

Conditions prévues :

Heure d'émission : Bulletin éffectué le 24 à 19:00 UTC
Prévision : Valide du 24 a 19:00 UTC au 25 a 15:00 UTC
Nuages : à 0ft (0 m)
WEBCAM POUR MONTMELIAN

Réglementation

Voler en sécurité

CARTES AERONAUTIQUE 1/500.000
CARTE AZBA (Reseau basse altitude)
CARTES VAC (LFLB)
SUP AIP




Chargement des AIP...
NOTAM (MONTMELIAN + Terrain à proximité / FIR )




Chargement des NOTAMS...
CONTACT PREFECTURE 73


Avertissement : Les données mises à disposition sont indicatives. Oxygène Drone ne pourra être tenu responsable de dégâts causés aux biens et aux personnes.